Time;durP1;ratioP1;P1;durP2;ratioP2;P2;SDS_P1;SDS_P2;PMS_P1;PMS_P2;Temp;Humidity;BMP_temperature;BMP_pressure;BME280_temperature;BME280_humidity;BME280_pressure;Samples;Min_cycle;Max_cycle;Signal;HPM_P1;HPM_P2
2023/08/18 00:02:17;;;;;;;5.68;1.90;;;21.80;59.60;;;;;;5012123;28;20037;-69
2023/08/18 00:04:43;;;;;;;4.53;2.30;;;21.80;59.70;;;;;;5017800;28;20030;-69
2023/08/18 00:07:10;;;;;;;4.93;2.00;;;21.80;59.90;;;;;;5019349;28;20041;-69
2023/08/18 00:09:36;;;;;;;5.70;2.75;;;21.80;60.00;;;;;;5016188;28;20033;-71
2023/08/18 00:12:05;;;;;;;3.55;1.50;;;21.80;60.10;;;;;;5017033;28;20034;-68
2023/08/18 00:14:31;;;;;;;4.35;1.85;;;21.80;60.20;;;;;;5014926;28;20034;-69
2023/08/18 00:16:57;;;;;;;3.05;1.83;;;21.70;60.10;;;;;;5017680;28;20028;-69
2023/08/18 00:19:23;;;;;;;4.05;1.73;;;21.70;60.30;;;;;;5008733;28;20873;-69
2023/08/18 00:21:52;;;;;;;5.38;2.33;;;21.70;60.40;;;;;;5016498;28;20036;-69
2023/08/18 00:24:18;;;;;;;4.20;1.85;;;21.70;60.50;;;;;;5010168;28;20033;-69
2023/08/18 00:26:45;;;;;;;4.10;2.10;;;21.70;60.60;;;;;;5015129;28;20048;-74
2023/08/18 00:29:12;;;;;;;5.00;2.42;;;21.70;60.70;;;;;;5017795;28;20041;-71
2023/08/18 00:31:38;;;;;;;4.22;1.85;;;21.70;60.80;;;;;;5009174;28;20038;-69
2023/08/18 00:34:04;;;;;;;5.13;2.20;;;21.60;60.70;;;;;;5016392;28;20045;-70
2023/08/18 00:36:31;;;;;;;4.47;2.00;;;21.60;60.80;;;;;;5011293;28;20030;-70
2023/08/18 00:39:02;;;;;;;5.78;2.33;;;21.70;61.20;;;;;;5017381;28;20095;-69
2023/08/18 00:41:28;;;;;;;6.00;2.70;;;21.60;61.10;;;;;;5017834;28;20116;-70
2023/08/18 00:43:54;;;;;;;4.28;2.45;;;21.60;61.20;;;;;;5012544;28;20103;-69
2023/08/18 00:46:21;;;;;;;4.28;2.08;;;21.60;61.30;;;;;;5019382;28;20367;-68
2023/08/18 00:48:48;;;;;;;5.53;2.25;;;21.60;61.40;;;;;;5015890;28;20095;-69
2023/08/18 00:51:16;;;;;;;9.55;2.47;;;21.60;61.60;;;;;;5026693;28;20076;-69
2023/08/18 00:53:44;;;;;;;3.03;2.20;;;21.60;61.60;;;;;;5016622;28;20045;-68
2023/08/18 00:56:11;;;;;;;4.40;2.30;;;21.50;61.60;;;;;;5017237;28;20460;-69
2023/08/18 00:58:37;;;;;;;7.68;2.45;;;21.50;61.70;;;;;;5014475;28;20439;-70
2023/08/18 01:01:04;;;;;;;5.40;2.60;;;21.50;61.80;;;;;;5010930;28;20508;-70
2023/08/18 01:03:30;;;;;;;6.68;2.95;;;21.50;61.90;;;;;;5010959;28;20041;-70
2023/08/18 01:05:56;;;;;;;3.97;2.45;;;21.40;61.80;;;;;;5015466;28;20053;-69
2023/08/18 01:08:22;;;;;;;7.88;3.28;;;21.40;61.90;;;;;;5018426;28;20045;-68
2023/08/18 01:11:17;;;;;;;6.55;2.80;;;21.40;62.10;;;;;;5007899;28;20115;-68
2023/08/18 01:14:13;;;;;;;6.07;3.03;;;21.40;62.30;;;;;;5011218;28;20029;-69
2023/08/18 01:16:45;;;;;;;4.13;2.85;;;21.40;62.40;;;;;;5012560;28;20117;-69
2023/08/18 01:19:14;;;;;;;4.57;2.60;;;21.40;62.40;;;;;;5018050;28;20486;-70
2023/08/18 01:21:43;;;;;;;5.57;3.47;;;21.40;62.50;;;;;;5019400;28;20048;-69
2023/08/18 01:24:08;;;;;;;5.88;3.25;;;21.40;62.60;;;;;;5018849;28;20194;-68
2023/08/18 01:26:34;;;;;;;7.47;3.65;;;21.30;62.50;;;;;;4997450;28;20088;-70
2023/08/18 01:29:01;;;;;;;9.13;3.90;;;21.30;62.70;;;;;;5017828;28;20025;-68
2023/08/18 01:31:31;;;;;;;5.22;3.03;;;21.30;62.80;;;;;;5013999;28;20417;-69
2023/08/18 01:34:06;;;;;;;7.00;3.60;;;21.30;63.00;;;;;;5004794;28;20351;-68
2023/08/18 01:36:39;;;;;;;5.68;3.75;;;21.30;63.10;;;;;;5019005;28;20035;-68
2023/08/18 01:39:09;;;;;;;4.90;3.50;;;21.30;63.10;;;;;;5014685;28;20409;-69
2023/08/18 01:41:36;;;;;;;5.22;3.80;;;21.30;63.20;;;;;;5013910;28;20048;-69
2023/08/18 01:44:05;;;;;;;4.25;3.38;;;21.30;63.30;;;;;;5015731;28;20045;-69
2023/08/18 01:46:31;;;;;;;6.85;4.18;;;21.30;64.00;;;;;;5012103;28;20037;-69
2023/08/18 01:48:59;;;;;;;7.85;4.18;;;21.30;63.50;;;;;;5016079;28;20040;-69
2023/08/18 01:51:25;;;;;;;7.55;3.83;;;21.20;63.50;;;;;;5019458;28;20442;-69
2023/08/18 01:53:51;;;;;;;11.07;5.15;;;21.20;63.60;;;;;;5020272;28;20037;-71
2023/08/18 01:56:19;;;;;;;7.28;4.03;;;21.20;63.70;;;;;;5010243;28;20035;-70
2023/08/18 01:58:45;;;;;;;8.07;4.75;;;21.20;63.70;;;;;;5021222;28;20033;-70
2023/08/18 02:01:11;;;;;;;6.07;4.40;;;21.20;63.90;;;;;;5019093;28;20033;-70
2023/08/18 02:03:37;;;;;;;5.38;4.30;;;21.20;64.00;;;;;;5014368;28;20025;-70
2023/08/18 02:06:03;;;;;;;6.95;4.22;;;21.20;64.10;;;;;;5014676;28;20462;-71
2023/08/18 02:08:30;;;;;;;5.90;4.55;;;21.20;64.20;;;;;;5022822;28;20579;-71
2023/08/18 02:11:05;;;;;;;5.50;4.57;;;21.10;64.10;;;;;;5008798;28;20034;-70
2023/08/18 02:13:32;;;;;;;7.35;4.90;;;21.10;64.30;;;;;;5012176;28;20120;-71
2023/08/18 02:15:59;;;;;;;4.78;3.65;;;21.10;64.40;;;;;;5018229;28;20430;-71
2023/08/18 02:18:27;;;;;;;7.45;4.38;;;21.10;64.40;;;;;;5017034;28;20580;-71
2023/08/18 02:20:58;;;;;;;7.93;4.90;;;21.10;64.50;;;;;;5017549;28;20026;-70
2023/08/18 02:23:24;;;;;;;6.80;4.88;;;21.10;64.60;;;;;;5020133;28;20441;-70
2023/08/18 02:25:50;;;;;;;5.25;4.75;;;21.10;64.60;;;;;;5020720;28;20098;-70
2023/08/18 02:28:19;;;;;;;5.78;4.55;;;21.10;64.80;;;;;;5012208;28;20048;-71
2023/08/18 02:30:45;;;;;;;6.63;5.25;;;21.00;64.70;;;;;;5018793;28;20181;-71
2023/08/18 02:33:11;;;;;;;7.88;4.70;;;21.10;64.90;;;;;;5020463;28;20488;-71
2023/08/18 02:35:41;;;;;;;5.38;4.53;;;21.10;65.00;;;;;;5012620;28;20021;-71
2023/08/18 02:38:09;;;;;;;5.47;4.97;;;21.10;65.10;;;;;;5015473;28;20026;-70
2023/08/18 02:40:35;;;;;;;6.88;4.90;;;21.00;65.00;;;;;;5019402;28;20048;-70
2023/08/18 02:43:02;;;;;;;6.82;4.78;;;21.00;65.10;;;;;;5020243;28;20060;-71
2023/08/18 02:45:29;;;;;;;8.45;5.75;;;21.00;65.10;;;;;;5019054;28;20276;-71
2023/08/18 02:47:55;;;;;;;8.02;5.22;;;21.00;65.20;;;;;;5019018;28;20041;-71
2023/08/18 02:50:21;;;;;;;8.10;5.50;;;21.00;65.30;;;;;;4999904;28;20072;-71
2023/08/18 02:52:47;;;;;;;6.88;5.13;;;21.00;65.40;;;;;;5016249;28;20437;-70
2023/08/18 02:55:13;;;;;;;8.13;5.70;;;21.00;65.50;;;;;;5020565;28;20083;-70
2023/08/18 02:57:39;;;;;;;9.05;5.95;;;21.00;65.50;;;;;;5004710;28;20033;-70
2023/08/18 03:00:06;;;;;;;7.93;5.60;;;21.00;65.70;;;;;;5021457;28;20045;-72
2023/08/18 03:02:33;;;;;;;8.45;5.57;;;20.90;65.50;;;;;;5015803;28;20523;-69
2023/08/18 03:05:02;;;;;;;10.02;6.05;;;21.00;65.80;;;;;;5019083;28;20037;-72
2023/08/18 03:07:28;;;;;;;7.47;5.47;;;21.00;65.90;;;;;;5009891;28;20040;-72
2023/08/18 03:09:54;;;;;;;8.43;5.65;;;21.00;65.90;;;;;;5016070;28;20033;-69
2023/08/18 03:12:20;;;;;;;6.60;5.72;;;20.90;65.80;;;;;;5014674;28;20033;-68
2023/08/18 03:14:51;;;;;;;8.02;6.00;;;20.90;65.90;;;;;;5010821;28;20088;-71
2023/08/18 03:17:18;;;;;;;7.55;5.50;;;20.90;66.00;;;;;;5019127;28;20052;-68
2023/08/18 03:19:45;;;;;;;9.23;6.50;;;20.90;66.00;;;;;;5019323;28;20052;-72
2023/08/18 03:22:11;;;;;;;8.77;6.75;;;20.90;66.10;;;;;;5015368;28;20595;-71
2023/08/18 03:24:38;;;;;;;7.45;5.82;;;20.90;66.20;;;;;;5018318;28;20033;-69
2023/08/18 03:27:05;;;;;;;6.13;5.53;;;20.90;66.30;;;;;;5018699;28;20091;-69
2023/08/18 03:29:31;;;;;;;6.88;5.32;;;20.90;66.30;;;;;;4990822;28;20283;-70
2023/08/18 03:31:57;;;;;;;6.35;5.07;;;20.90;66.40;;;;;;5015797;28;20160;-70
2023/08/18 03:34:24;;;;;;;7.18;6.25;;;20.90;66.50;;;;;;5012657;28;20049;-71
2023/08/18 03:36:50;;;;;;;8.65;6.55;;;20.90;66.60;;;;;;5017017;28;20047;-71
2023/08/18 03:39:16;;;;;;;7.03;5.78;;;20.90;66.80;;;;;;5007698;28;20048;-70
2023/08/18 03:41:42;;;;;;;7.93;6.60;;;20.90;66.90;;;;;;5018093;28;20064;-69
2023/08/18 03:44:08;;;;;;;12.68;6.50;;;20.90;67.00;;;;;;5014415;28;20040;-70
2023/08/18 03:46:37;;;;;;;12.68;7.90;;;20.90;67.30;;;;;;5019489;28;20136;-70
2023/08/18 03:49:05;;;;;;;8.07;6.68;;;20.90;67.40;;;;;;5017909;28;20347;-70
2023/08/18 03:51:33;;;;;;;11.35;7.22;;;20.80;67.40;;;;;;5006215;28;20046;-70
2023/08/18 03:53:59;;;;;;;8.73;6.05;;;20.90;67.80;;;;;;5017626;28;20045;-69
2023/08/18 03:56:26;;;;;;;8.90;6.35;;;20.80;67.80;;;;;;5011109;28;20033;-70
2023/08/18 03:58:52;;;;;;;8.52;6.60;;;20.80;67.90;;;;;;5019645;28;20041;-69
2023/08/18 04:01:20;;;;;;;7.80;6.50;;;20.80;68.10;;;;;;5016535;28;20080;-70
2023/08/18 04:03:48;;;;;;;7.28;6.35;;;20.80;68.20;;;;;;5014691;28;20038;-69
2023/08/18 04:06:14;;;;;;;9.70;7.05;;;20.80;68.40;;;;;;5017250;28;20135;-68
2023/08/18 04:08:43;;;;;;;8.25;5.80;;;20.80;68.40;;;;;;5001264;28;20065;-69
2023/08/18 04:11:13;;;;;;;7.80;6.60;;;20.80;69.10;;;;;;5012468;28;20172;-69
2023/08/18 04:13:39;;;;;;;10.02;6.90;;;20.70;69.10;;;;;;5019682;28;20033;-68
2023/08/18 04:16:06;;;;;;;8.35;6.95;;;20.70;68.70;;;;;;5014533;28;20103;-69
2023/08/18 04:18:32;;;;;;;10.00;6.78;;;20.70;68.80;;;;;;5012035;28;20165;-71
2023/08/18 04:20:58;;;;;;;10.35;6.68;;;20.70;69.00;;;;;;5017981;28;20500;-68
2023/08/18 04:23:24;;;;;;;8.73;7.32;;;20.70;69.10;;;;;;5017286;28;20029;-67
2023/08/18 04:25:50;;;;;;;8.15;6.93;;;20.70;69.20;;;;;;5014134;28;20383;-69
2023/08/18 04:28:16;;;;;;;7.25;6.55;;;20.70;69.40;;;;;;5016499;28;20033;-67
2023/08/18 04:30:45;;;;;;;7.53;6.75;;;20.70;69.50;;;;;;5017485;28;20072;-67
2023/08/18 04:33:17;;;;;;;10.65;8.57;;;20.60;69.40;;;;;;5014568;28;20201;-68
2023/08/18 04:35:44;;;;;;;7.60;6.47;;;20.60;69.50;;;;;;5019030;28;20328;-68
2023/08/18 04:38:12;;;;;;;8.57;7.20;;;20.60;69.60;;;;;;5004742;28;20034;-69
2023/08/18 04:40:38;;;;;;;7.97;6.47;;;20.60;69.70;;;;;;5013699;28;20087;-68
2023/08/18 04:43:05;;;;;;;7.03;6.43;;;20.60;69.80;;;;;;4998533;28;20030;-70
2023/08/18 04:45:32;;;;;;;8.45;7.57;;;20.60;70.00;;;;;;5018973;28;20433;-69
2023/08/18 04:47:58;;;;;;;8.05;6.97;;;20.60;70.00;;;;;;5017741;28;20025;-69
2023/08/18 04:50:24;;;;;;;7.63;6.57;;;20.50;69.90;;;;;;5012678;28;20635;-69
2023/08/18 04:52:50;;;;;;;10.88;7.32;;;20.50;70.00;;;;;;5018182;28;20021;-69
2023/08/18 04:55:16;;;;;;;8.13;6.97;;;20.50;70.00;;;;;;5038001;28;20552;-68
2023/08/18 04:57:42;;;;;;;7.57;6.72;;;20.50;70.20;;;;;;5020227;28;20336;-69
2023/08/18 05:00:11;;;;;;;9.57;8.13;;;20.50;70.20;;;;;;5021128;28;20056;-68
2023/08/18 05:02:37;;;;;;;9.57;6.85;;;20.50;70.30;;;;;;5018187;28;20124;-68
2023/08/18 05:05:03;;;;;;;7.43;6.40;;;20.50;70.40;;;;;;5019648;28;20135;-69
2023/08/18 05:07:30;;;;;;;7.95;6.22;;;20.50;70.50;;;;;;5014638;28;20022;-68
2023/08/18 05:09:55;;;;;;;10.15;6.47;;;20.50;70.50;;;;;;5013753;28;20065;-68
2023/08/18 05:12:21;;;;;;;9.43;7.65;;;20.40;70.40;;;;;;5017154;28;20498;-68
2023/08/18 05:14:47;;;;;;;7.22;6.53;;;20.50;70.70;;;;;;5015684;28;20033;-68
2023/08/18 05:17:13;;;;;;;8.52;7.60;;;20.50;70.80;;;;;;5020678;28;20040;-69
2023/08/18 05:19:39;;;;;;;8.90;7.47;;;20.40;70.70;;;;;;5017158;28;20048;-69
2023/08/18 05:22:06;;;;;;;8.57;7.55;;;20.40;70.80;;;;;;5008584;28;20041;-69
2023/08/18 05:24:31;;;;;;;7.75;6.93;;;20.40;70.90;;;;;;5019915;28;20045;-69
2023/08/18 05:26:57;;;;;;;12.05;8.18;;;20.40;71.00;;;;;;5006475;28;20026;-69
2023/08/18 05:29:23;;;;;;;9.73;7.47;;;20.40;71.00;;;;;;5005966;28;20060;-69
2023/08/18 05:31:49;;;;;;;10.45;7.80;;;20.40;71.10;;;;;;5011548;28;20033;-68
2023/08/18 05:34:15;;;;;;;11.25;7.97;;;20.40;71.20;;;;;;5016328;28;20037;-68
2023/08/18 05:36:41;;;;;;;9.95;6.70;;;20.40;71.30;;;;;;5015829;28;20699;-68
2023/08/18 05:39:07;;;;;;;10.77;8.13;;;20.40;71.40;;;;;;5009099;28;20064;-68
2023/08/18 05:41:34;;;;;;;9.25;7.88;;;20.40;71.50;;;;;;5012142;28;20033;-69
2023/08/18 05:44:00;;;;;;;8.95;7.88;;;20.40;71.70;;;;;;5012666;28;20033;-68
2023/08/18 05:46:26;;;;;;;11.50;7.72;;;20.40;72.20;;;;;;5012836;28;20105;-67
2023/08/18 05:48:52;;;;;;;15.00;7.50;;;20.40;72.60;;;;;;5006855;28;20339;-69
2023/08/18 05:51:19;;;;;;;13.32;8.52;;;20.50;73.30;;;;;;5002848;28;20676;-69
2023/08/18 05:53:45;;;;;;;9.57;8.13;;;20.60;74.10;;;;;;5008809;28;20038;-70
2023/08/18 05:56:11;;;;;;;8.45;7.63;;;20.60;74.40;;;;;;5012558;28;20029;-69
2023/08/18 05:58:37;;;;;;;12.75;8.23;;;20.70;75.00;;;;;;5010576;28;20041;-70
2023/08/18 06:01:03;;;;;;;8.80;6.72;;;20.70;75.30;;;;;;5009091;28;20052;-69
2023/08/18 06:03:30;;;;;;;10.35;8.77;;;20.80;75.70;;;;;;5011125;28;20664;-69
2023/08/18 06:06:00;;;;;;;8.38;7.25;;;20.80;75.80;;;;;;5011970;28;20033;-69
2023/08/18 06:08:26;;;;;;;12.18;8.25;;;20.80;75.90;;;;;;5012966;28;20041;-69
2023/08/18 06:10:52;;;;;;;9.00;7.80;;;20.80;76.20;;;;;;5025387;28;20033;-70
2023/08/18 06:13:18;;;;;;;10.07;7.88;;;20.90;76.30;;;;;;5008393;28;20514;-69
2023/08/18 06:15:44;;;;;;;8.07;7.38;;;20.90;76.30;;;;;;5007790;28;20037;-70
2023/08/18 06:18:11;;;;;;;9.00;7.63;;;20.90;76.40;;;;;;5006286;28;20042;-69
2023/08/18 06:20:38;;;;;;;9.70;7.65;;;20.90;76.50;;;;;;5012145;28;20048;-69
2023/08/18 06:23:04;;;;;;;9.13;8.23;;;20.90;76.70;;;;;;5004284;28;20091;-69
2023/08/18 06:25:31;;;;;;;10.63;7.75;;;21.00;77.00;;;;;;5011505;28;20041;-70
2023/08/18 06:27:57;;;;;;;8.50;7.45;;;21.00;77.00;;;;;;5006743;28;20083;-70
2023/08/18 06:30:23;;;;;;;8.23;7.15;;;21.00;77.00;;;;;;5013496;28;20030;-70
2023/08/18 06:32:50;;;;;;;8.88;7.97;;;21.00;76.90;;;;;;5010780;28;20073;-69
2023/08/18 06:35:17;;;;;;;9.90;7.93;;;21.00;76.70;;;;;;5011669;28;20025;-69
2023/08/18 06:37:44;;;;;;;8.70;7.55;;;21.00;76.70;;;;;;5012003;28;20042;-70
2023/08/18 06:40:10;;;;;;;10.35;8.38;;;21.00;76.60;;;;;;5011630;28;20041;-69
2023/08/18 06:42:37;;;;;;;9.15;7.47;;;21.00;76.60;;;;;;5013014;28;20280;-70
2023/08/18 06:45:04;;;;;;;11.05;7.35;;;20.90;76.30;;;;;;5013028;28;20437;-70
2023/08/18 06:47:31;;;;;;;9.55;8.43;;;20.90;76.30;;;;;;5006563;28;20037;-70
2023/08/18 06:49:57;;;;;;;8.38;7.47;;;20.90;76.30;;;;;;5013721;28;20057;-69
2023/08/18 06:52:30;;;;;;;8.32;7.50;;;20.90;76.30;;;;;;5008291;28;20044;-69
2023/08/18 06:54:56;;;;;;;9.63;7.15;;;20.90;76.70;;;;;;5005655;28;20033;-69
2023/08/18 06:57:27;;;;;;;8.23;7.18;;;20.90;76.10;;;;;;5013533;28;20091;-69
2023/08/18 06:59:56;;;;;;;7.88;7.07;;;20.90;76.10;;;;;;5003587;28;20132;-69
2023/08/18 07:02:23;;;;;;;8.18;6.78;;;20.90;76.30;;;;;;5007512;28;20030;-70
2023/08/18 07:04:49;;;;;;;10.98;8.25;;;20.90;76.00;;;;;;5010166;28;20033;-69
2023/08/18 07:07:19;;;;;;;9.70;7.90;;;20.90;76.00;;;;;;5012143;28;20030;-69
2023/08/18 07:09:46;;;;;;;8.65;7.63;;;20.90;76.00;;;;;;5004286;28;20410;-69
2023/08/18 07:12:13;;;;;;;8.38;7.50;;;20.90;76.10;;;;;;5008590;28;20044;-70
2023/08/18 07:14:40;;;;;;;8.73;7.82;;;20.90;76.00;;;;;;5013884;28;20392;-69
2023/08/18 07:17:06;;;;;;;7.40;6.75;;;20.90;76.00;;;;;;5015399;28;20029;-69
2023/08/18 07:19:33;;;;;;;9.00;8.13;;;20.90;76.00;;;;;;5012344;28;20125;-69
2023/08/18 07:22:04;;;;;;;7.70;6.97;;;20.90;75.90;;;;;;5010751;28;20563;-69
2023/08/18 07:24:33;;;;;;;7.40;6.40;;;20.90;75.90;;;;;;5006327;28;20493;-70
2023/08/18 07:27:00;;;;;;;8.85;7.28;;;20.90;75.80;;;;;;5001364;28;20248;-69
2023/08/18 07:29:27;;;;;;;8.27;7.45;;;20.90;75.70;;;;;;5000015;28;20045;-69
2023/08/18 07:31:55;;;;;;;9.13;8.32;;;20.90;75.70;;;;;;5008434;28;20587;-69
2023/08/18 07:34:22;;;;;;;118.88;32.42;;;20.90;75.80;;;;;;5008863;28;20021;-68
2023/08/18 07:36:49;;;;;;;89.97;27.42;;;20.90;75.70;;;;;;5014972;28;20145;-69
2023/08/18 07:39:15;;;;;;;65.80;20.80;;;21.00;75.90;;;;;;4998716;28;20084;-69
2023/08/18 07:41:43;;;;;;;54.20;17.23;;;21.00;76.00;;;;;;5011668;28;20571;-70
2023/08/18 07:44:10;;;;;;;44.20;17.35;;;21.00;75.90;;;;;;5010008;28;20041;-69
2023/08/18 07:46:39;;;;;;;32.25;14.43;;;21.10;76.10;;;;;;5013451;28;20033;-69
2023/08/18 07:49:06;;;;;;;34.38;14.52;;;21.10;75.90;;;;;;5008277;28;20068;-68
2023/08/18 07:51:32;;;;;;;35.92;14.07;;;21.10;75.90;;;;;;5014303;28;20033;-69
2023/08/18 07:53:59;;;;;;;22.45;11.48;;;21.20;76.00;;;;;;5008782;28;20125;-69
2023/08/18 07:56:25;;;;;;;22.35;12.43;;;21.20;75.90;;;;;;5017175;28;20033;-68
2023/08/18 07:58:52;;;;;;;19.63;10.68;;;21.20;75.90;;;;;;5009703;28;20034;-69
2023/08/18 08:01:22;;;;;;;16.67;10.15;;;21.30;76.00;;;;;;5015041;28;20037;-69
2023/08/18 08:03:48;;;;;;;16.02;10.07;;;21.30;76.00;;;;;;5000905;28;20103;-69
2023/08/18 08:06:15;;;;;;;16.27;10.90;;;21.30;76.00;;;;;;5010048;28;20049;-69
2023/08/18 08:08:41;;;;;;;15.75;9.48;;;21.30;76.00;;;;;;5013691;28;20234;-69
2023/08/18 08:11:08;;;;;;;15.50;10.50;;;21.30;76.00;;;;;;5001635;28;20029;-69
2023/08/18 08:13:34;;;;;;;13.10;10.27;;;21.30;75.90;;;;;;5010276;28;20037;-69
2023/08/18 08:16:01;;;;;;;14.23;9.07;;;21.30;75.80;;;;;;5007690;28;20069;-68
2023/08/18 08:18:27;;;;;;;12.50;9.25;;;21.30;75.70;;;;;;5012652;28;20120;-69
2023/08/18 08:20:53;;;;;;;11.93;9.73;;;21.40;75.70;;;;;;5015278;28;20057;-69
2023/08/18 08:23:20;;;;;;;14.05;10.43;;;21.40;75.60;;;;;;5014896;28;20030;-69
2023/08/18 08:25:47;;;;;;;13.07;9.73;;;21.50;75.70;;;;;;5010177;28;20052;-69
2023/08/18 08:28:13;;;;;;;11.07;9.38;;;21.50;75.60;;;;;;5007562;28;20541;-69
2023/08/18 08:30:44;;;;;;;12.05;9.90;;;21.50;75.50;;;;;;5012608;28;20198;-69
2023/08/18 08:33:11;;;;;;;10.45;9.27;;;21.60;75.50;;;;;;5014179;28;20283;-69
2023/08/18 08:35:37;;;;;;;10.82;9.73;;;21.60;75.30;;;;;;5016892;28;20068;-69
2023/08/18 08:38:04;;;;;;;12.15;9.00;;;21.70;75.30;;;;;;5012893;28;20540;-68
2023/08/18 08:40:30;;;;;;;11.73;9.52;;;21.70;75.20;;;;;;5013592;28;20050;-68
2023/08/18 08:42:56;;;;;;;10.82;9.73;;;21.70;75.10;;;;;;5006960;28;20037;-69
2023/08/18 08:45:23;;;;;;;10.70;9.48;;;21.70;75.00;;;;;;5014544;28;20292;-68
2023/08/18 08:47:51;;;;;;;10.00;8.93;;;21.70;74.90;;;;;;5018476;28;20057;-69
2023/08/18 08:50:18;;;;;;;10.38;9.32;;;21.70;74.80;;;;;;5006362;28;20103;-68
2023/08/18 08:52:48;;;;;;;10.70;9.63;;;21.70;74.70;;;;;;5016993;28;20040;-69
2023/08/18 08:55:17;;;;;;;9.45;8.63;;;21.70;74.60;;;;;;5015463;28;20033;-68
2023/08/18 08:57:44;;;;;;;12.93;9.32;;;21.80;74.70;;;;;;5013661;28;20037;-69
2023/08/18 09:00:11;;;;;;;10.77;9.77;;;21.80;74.60;;;;;;5005109;28;20077;-69
2023/08/18 09:02:42;;;;;;;10.52;9.45;;;21.80;74.60;;;;;;5002694;28;20308;-69
2023/08/18 09:05:10;;;;;;;10.23;9.23;;;21.80;74.40;;;;;;5007682;28;20308;-69
2023/08/18 09:07:36;;;;;;;10.70;9.55;;;21.90;74.50;;;;;;5003823;28;20455;-69
2023/08/18 09:10:07;;;;;;;10.98;9.57;;;21.90;74.40;;;;;;5007467;28;20029;-69
2023/08/18 09:12:34;;;;;;;10.73;9.63;;;22.00;74.30;;;;;;5010023;28;20065;-69
2023/08/18 09:15:01;;;;;;;10.50;9.50;;;22.10;74.20;;;;;;5007391;28;20040;-69
2023/08/18 09:17:27;;;;;;;10.75;9.25;;;22.20;74.20;;;;;;5015717;28;20509;-69
2023/08/18 09:19:57;;;;;;;10.18;9.20;;;22.20;73.90;;;;;;5005249;28;20034;-70
2023/08/18 09:22:24;;;;;;;11.75;10.65;;;22.30;73.90;;;;;;5011427;28;20067;-70
2023/08/18 09:24:56;;;;;;;10.38;9.40;;;22.40;74.00;;;;;;5003154;28;20071;-71
2023/08/18 09:27:23;;;;;;;10.02;9.13;;;22.40;74.00;;;;;;5009714;28;20057;-70
2023/08/18 09:29:50;;;;;;;10.18;9.25;;;22.50;74.00;;;;;;5012172;28;20041;-69
2023/08/18 09:32:17;;;;;;;11.70;8.60;;;22.60;74.10;;;;;;5010351;28;20098;-69
2023/08/18 09:34:44;;;;;;;10.57;9.52;;;22.50;73.90;;;;;;5003148;28;20046;-69
2023/08/18 09:37:11;;;;;;;11.05;9.95;;;22.60;74.00;;;;;;5015150;28;20045;-67
2023/08/18 09:39:41;;;;;;;11.15;9.13;;;22.60;73.90;;;;;;5010859;28;20037;-69
2023/08/18 09:42:08;;;;;;;10.35;8.73;;;22.70;74.00;;;;;;5009626;28;20396;-69
2023/08/18 09:44:35;;;;;;;9.88;8.82;;;22.70;73.90;;;;;;5013303;28;20438;-68
2023/08/18 09:47:04;;;;;;;10.82;8.80;;;22.80;74.00;;;;;;5006970;28;20112;-68
2023/08/18 09:49:34;;;;;;;8.40;7.57;;;22.90;74.20;;;;;;5016598;28;20048;-69
2023/08/18 09:52:08;;;;;;;8.98;8.18;;;22.90;74.10;;;;;;5017387;28;20568;-70
2023/08/18 09:54:54;;;;;;;9.70;8.82;;;23.00;74.20;;;;;;5012066;28;20548;-69
2023/08/18 09:57:31;;;;;;;9.95;8.93;;;23.00;74.00;;;;;;5018810;28;20106;-69
2023/08/18 10:00:01;;;;;;;9.10;8.25;;;23.10;74.10;;;;;;5004199;28;20125;-68
2023/08/18 10:02:34;;;;;;;10.50;9.45;;;23.10;74.10;;;;;;5012063;28;20069;-68
2023/08/18 10:05:01;;;;;;;10.30;8.73;;;23.10;74.10;;;;;;5003212;28;20065;-68
2023/08/18 10:07:28;;;;;;;8.40;7.43;;;23.10;74.10;;;;;;5008411;28;20029;-68
2023/08/18 10:09:55;;;;;;;9.38;8.48;;;23.10;74.00;;;;;;5007895;28;20670;-69
2023/08/18 10:12:21;;;;;;;10.10;9.13;;;23.20;74.20;;;;;;5001623;28;20038;-69
2023/08/18 10:14:49;;;;;;;9.18;8.38;;;23.20;74.10;;;;;;5006489;28;20493;-68
2023/08/18 10:17:16;;;;;;;8.60;7.80;;;23.20;74.10;;;;;;5003598;28;20034;-68
2023/08/18 10:19:52;;;;;;;9.13;8.23;;;23.20;74.00;;;;;;5015421;28;20045;-69
2023/08/18 10:22:22;;;;;;;9.30;8.40;;;23.20;73.90;;;;;;5006189;28;20037;-66
2023/08/18 10:24:49;;;;;;;9.23;8.43;;;23.30;74.00;;;;;;5011548;28;20533;-69
2023/08/18 10:27:28;;;;;;;10.52;9.63;;;23.40;74.10;;;;;;5012120;28;20292;-68
2023/08/18 10:30:02;;;;;;;9.48;8.57;;;23.40;74.00;;;;;;5005496;28;20303;-68
2023/08/18 10:32:32;;;;;;;9.90;9.00;;;23.50;74.00;;;;;;5014858;28;20018;-69
2023/08/18 10:35:20;;;;;;;8.82;8.05;;;23.50;73.80;;;;;;5014844;28;20272;-69
2023/08/18 10:37:55;;;;;;;9.50;8.60;;;23.60;73.70;;;;;;5010015;28;20029;-68
2023/08/18 10:40:23;;;;;;;10.50;9.60;;;23.80;73.60;;;;;;5009526;28;20049;-68
2023/08/18 10:43:02;;;;;;;9.93;9.02;;;23.80;73.30;;;;;;5007159;28;20045;-68
2023/08/18 10:45:29;;;;;;;8.40;7.60;;;24.00;73.40;;;;;;5011263;28;20383;-69
2023/08/18 10:48:01;;;;;;;9.35;8.55;;;24.00;73.10;;;;;;5008169;28;20099;-69
2023/08/18 10:50:30;;;;;;;8.77;7.93;;;24.10;73.00;;;;;;5005239;28;20049;-69
2023/08/18 10:52:57;;;;;;;9.35;8.38;;;24.20;72.90;;;;;;5017472;28;20472;-69
2023/08/18 10:55:28;;;;;;;10.02;8.60;;;24.30;72.80;;;;;;5004532;28;20041;-69
2023/08/18 10:57:54;;;;;;;21.35;15.18;;;24.40;72.70;;;;;;5013295;28;20200;-69
2023/08/18 11:00:21;;;;;;;13.63;12.23;;;24.50;72.70;;;;;;5006380;28;20045;-68
2023/08/18 11:02:51;;;;;;;13.15;11.75;;;24.60;72.80;;;;;;5006189;28;20038;-68
2023/08/18 11:05:19;;;;;;;12.13;10.85;;;24.60;72.60;;;;;;5009897;28;20421;-68
2023/08/18 11:07:50;;;;;;;18.23;11.65;;;24.60;72.60;;;;;;5015646;28;20048;-70
2023/08/18 11:10:18;;;;;;;11.50;10.30;;;24.60;72.50;;;;;;5006503;28;20036;-70
2023/08/18 11:12:54;;;;;;;11.82;10.13;;;24.60;72.50;;;;;;5013840;28;20044;-70
2023/08/18 11:15:21;;;;;;;11.02;10.00;;;24.60;72.50;;;;;;5011405;28;20487;-69
2023/08/18 11:17:49;;;;;;;11.30;10.15;;;24.70;72.70;;;;;;5005906;28;20116;-68
2023/08/18 11:20:16;;;;;;;11.68;10.48;;;24.70;72.60;;;;;;5014410;28;20045;-69
2023/08/18 11:22:47;;;;;;;14.38;11.30;;;24.70;72.40;;;;;;5008451;28;20029;-68
2023/08/18 11:25:16;;;;;;;12.38;11.15;;;24.80;72.40;;;;;;5008351;28;20106;-69
2023/08/18 11:27:45;;;;;;;12.65;11.45;;;24.90;72.40;;;;;;5012430;28;20025;-69
2023/08/18 11:30:14;;;;;;;11.02;9.98;;;25.00;72.20;;;;;;5014029;28;20478;-68
2023/08/18 11:32:42;;;;;;;11.20;10.00;;;25.10;71.90;;;;;;5013636;28;20149;-69
2023/08/18 11:35:10;;;;;;;12.23;11.02;;;25.30;71.60;;;;;;5011305;28;20064;-68
2023/08/18 11:37:45;;;;;;;11.82;10.60;;;25.40;71.20;;;;;;4985404;28;20042;-69
2023/08/18 11:40:13;;;;;;;11.95;10.30;;;25.60;70.80;;;;;;5013707;28;20056;-69
2023/08/18 11:42:47;;;;;;;10.85;9.80;;;25.70;70.60;;;;;;5013502;28;20428;-68
2023/08/18 11:45:22;;;;;;;11.85;10.75;;;25.70;70.30;;;;;;5010886;28;20548;-69
2023/08/18 11:48:01;;;;;;;11.55;10.32;;;25.80;70.20;;;;;;5008024;28;20239;-70
2023/08/18 11:50:38;;;;;;;11.90;10.90;;;25.80;70.00;;;;;;5005701;28;20119;-69
2023/08/18 11:53:08;;;;;;;11.65;10.65;;;25.80;69.80;;;;;;5007186;28;20134;-68
2023/08/18 11:55:39;;;;;;;11.85;10.75;;;25.90;69.80;;;;;;5008150;28;20482;-68
2023/08/18 11:58:14;;;;;;;13.80;10.15;;;25.80;69.60;;;;;;5012822;28;20068;-69
2023/08/18 12:00:43;;;;;;;12.65;11.27;;;25.80;69.60;;;;;;5010035;28;20477;-69
2023/08/18 12:03:33;;;;;;;11.02;10.10;;;25.80;69.50;;;;;;5003413;28;20034;-69
2023/08/18 12:06:01;;;;;;;11.82;10.73;;;25.90;69.40;;;;;;5007870;28;20034;-68
2023/08/18 12:08:27;;;;;;;10.85;9.85;;;26.00;69.30;;;;;;5011790;28;20040;-69
2023/08/18 12:10:54;;;;;;;10.27;9.32;;;26.10;69.10;;;;;;5008079;28;20532;-69
2023/08/18 12:13:21;;;;;;;10.65;9.65;;;26.20;68.80;;;;;;5008889;28;20512;-69
2023/08/18 12:15:48;;;;;;;9.80;8.90;;;26.40;68.70;;;;;;5010501;28;20029;-69
2023/08/18 12:18:14;;;;;;;8.77;8.05;;;26.50;68.90;;;;;;5007676;28;20038;-69
2023/08/18 12:20:41;;;;;;;9.70;8.90;;;26.70;67.90;;;;;;5007328;28;20183;-70
2023/08/18 12:23:08;;;;;;;9.13;8.25;;;26.80;67.50;;;;;;5003805;28;20038;-69
2023/08/18 12:25:35;;;;;;;9.95;9.00;;;26.90;67.30;;;;;;5007665;28;20037;-68
2023/08/18 12:28:03;;;;;;;10.30;9.50;;;26.90;67.20;;;;;;5010058;28;20037;-69
2023/08/18 12:30:30;;;;;;;10.63;9.68;;;26.90;67.20;;;;;;5012825;28;20499;-68
2023/08/18 12:32:55;;;;;;;10.68;9.60;;;26.80;67.10;;;;;;5013674;28;20124;-69
2023/08/18 12:35:22;;;;;;;11.40;10.40;;;26.70;67.10;;;;;;5007946;28;20043;-70
2023/08/18 12:37:49;;;;;;;11.18;10.13;;;26.70;67.20;;;;;;5006709;28;20070;-69
2023/08/18 12:40:15;;;;;;;11.00;10.00;;;26.70;67.30;;;;;;5010811;28;20460;-68
2023/08/18 12:42:41;;;;;;;11.32;10.25;;;26.60;67.20;;;;;;5007359;28;20033;-70
2023/08/18 12:45:09;;;;;;;11.40;10.23;;;26.70;67.30;;;;;;5012853;28;20042;-69